createdAt,value
2019-01-05T00:00:55.788Z,101431.00
2019-01-05T00:03:38.865Z,101437.00
2019-01-05T00:06:18.643Z,101431.00
2019-01-05T00:08:58.395Z,101436.00
2019-01-05T00:11:45.482Z,101421.00
2019-01-05T00:14:28.305Z,101419.00
2019-01-05T00:17:07.882Z,101411.00
2019-01-05T00:19:39.718Z,101415.00
2019-01-05T00:22:26.804Z,101410.00
2019-01-05T00:25:13.954Z,101410.00
2019-01-05T00:28:02.692Z,101413.00
2019-01-05T00:30:39.398Z,101411.00
2019-01-05T00:33:28.416Z,101394.00
2019-01-05T00:35:59.247Z,101395.00
2019-01-05T00:38:36.171Z,101392.00
2019-01-05T00:41:23.615Z,101388.00
2019-01-05T00:44:00.149Z,101376.00
2019-01-05T00:46:31.184Z,101371.00
2019-01-05T00:49:09.527Z,101370.00
2019-01-05T00:51:40.865Z,101368.00
2019-01-05T00:54:26.946Z,101357.00
2019-01-05T00:57:13.908Z,101350.00
2019-01-05T00:59:44.654Z,101347.00
2019-01-05T01:02:30.757Z,101339.00
2019-01-05T01:05:13.712Z,101331.00
2019-01-05T01:08:00.864Z,101339.00
2019-01-05T01:10:31.677Z,101337.00
2019-01-05T01:13:18.539Z,101332.00
2019-01-05T01:15:51.996Z,101327.00
2019-01-05T01:18:22.737Z,101321.00
2019-01-05T01:21:11.510Z,101317.00
2019-01-05T01:26:53.681Z,101303.00
2019-01-05T01:29:40.488Z,101303.00
2019-01-05T01:32:14.002Z,101296.00
2019-01-05T01:34:47.877Z,101302.00
2019-01-05T01:37:54.304Z,101302.00
2019-01-05T01:40:25.217Z,101284.00
2019-01-05T01:43:01.962Z,101283.00
2019-01-05T01:45:32.768Z,101281.00
2019-01-05T01:48:06.565Z,101268.00
2019-01-05T01:50:54.148Z,101269.00
2019-01-05T01:53:30.924Z,101268.00
2019-01-05T01:56:11.130Z,101264.00
2019-01-05T01:58:58.493Z,101256.00
2019-01-05T02:01:31.887Z,101253.00
2019-01-05T02:04:20.745Z,101259.00
2019-01-05T02:07:07.699Z,101251.00
2019-01-05T02:09:54.738Z,101250.00
2019-01-05T02:12:41.062Z,101238.00
2019-01-05T02:15:17.461Z,101243.00
2019-01-05T02:17:48.985Z,101236.00
2019-01-05T02:20:36.293Z,101225.00
2019-01-05T02:23:35.961Z,101222.00
2019-01-05T02:26:44.630Z,101206.00
2019-01-05T02:30:06.377Z,101198.00
2019-01-05T02:33:07.369Z,101205.00
2019-01-05T02:36:22.005Z,101188.00
2019-01-05T02:39:17.075Z,101193.00
2019-01-05T02:42:38.990Z,101195.00
2019-01-05T02:46:04.750Z,101179.00
2019-01-05T02:49:03.694Z,101184.00
2019-01-05T02:51:59.385Z,101177.00
2019-01-05T02:58:33.337Z,101152.00
2019-01-05T03:01:59.872Z,101145.00
2019-01-05T03:05:08.751Z,101141.00
2019-01-05T03:08:10.258Z,101144.00
2019-01-05T03:11:11.461Z,101137.00
2019-01-05T03:14:31.230Z,101143.00
2019-01-05T03:17:49.322Z,101143.00
2019-01-05T03:21:00.290Z,101126.00
2019-01-05T03:24:17.819Z,101129.00
2019-01-05T03:27:14.021Z,101119.00
2019-01-05T03:30:28.126Z,101122.00
2019-01-05T03:33:27.334Z,101108.00
2019-01-05T03:36:53.542Z,101113.00
2019-01-05T03:39:50.052Z,101110.00
2019-01-05T03:43:03.432Z,101117.00
2019-01-05T03:46:19.369Z,101093.00
2019-01-05T03:50:01.892Z,101106.00
2019-01-05T03:53:04.698Z,101090.00
2019-01-05T03:56:17.967Z,101096.00
2019-01-05T03:59:10.327Z,101104.00
2019-01-05T04:02:06.184Z,101102.00
2019-01-05T04:05:16.662Z,101106.00
2019-01-05T04:08:44.871Z,101092.00
2019-01-05T04:12:16.487Z,101087.00
2019-01-05T04:15:44.408Z,101096.00
2019-01-05T04:18:25.524Z,101090.00
2019-01-05T04:21:21.749Z,101088.00
2019-01-05T04:24:19.715Z,101084.00
2019-01-05T04:27:36.477Z,101086.00
2019-01-05T04:31:07.227Z,101086.00
2019-01-05T04:34:15.390Z,101087.00
2019-01-05T04:36:56.028Z,101087.00
2019-01-05T04:39:52.320Z,101090.00
2019-01-05T04:42:51.142Z,101081.00
2019-01-05T04:45:45.253Z,101085.00
2019-01-05T04:48:35.689Z,101088.00
2019-01-05T04:51:28.419Z,101079.00
2019-01-05T04:54:36.895Z,101085.00
2019-01-05T04:57:54.017Z,101089.00
2019-01-05T05:00:35.486Z,101081.00
2019-01-05T05:03:39.606Z,101074.00
2019-01-05T05:06:56.515Z,101077.00
2019-01-05T05:10:11.023Z,101073.00
2019-01-05T05:13:26.405Z,101091.00
2019-01-05T05:17:02.310Z,101086.00
2019-01-05T05:19:58.368Z,101081.00
2019-01-05T05:23:08.129Z,101081.00
2019-01-05T05:26:52.433Z,101077.00
2019-01-05T05:30:14.457Z,101073.00
2019-01-05T05:36:14.968Z,101072.00
2019-01-05T05:39:35.955Z,101082.00
2019-01-05T05:42:40.730Z,101077.00
2019-01-05T05:45:42.867Z,101075.00
2019-01-05T05:48:45.278Z,101072.00
2019-01-05T05:51:55.327Z,101079.00
2019-01-05T05:55:02.785Z,101078.00
2019-01-05T05:58:23.745Z,101075.00
2019-01-05T06:01:39.900Z,101072.00
2019-01-05T06:04:48.727Z,101073.00
2019-01-05T06:08:06.304Z,101061.00
2019-01-05T06:11:31.082Z,101066.00
2019-01-05T06:14:41.815Z,101073.00
2019-01-05T06:17:39.494Z,101084.00
2019-01-05T06:21:06.455Z,101082.00
2019-01-05T06:24:32.973Z,101087.00
2019-01-05T06:27:25.305Z,101108.00
2019-01-05T06:30:21.508Z,101105.00
2019-01-05T06:33:29.364Z,101100.00
2019-01-05T06:36:38.663Z,101099.00
2019-01-05T06:39:30.531Z,101087.00
2019-01-05T06:42:43.792Z,101093.00
2019-01-05T06:45:43.085Z,101088.00
2019-01-05T06:48:33.786Z,101096.00
2019-01-05T06:51:17.997Z,101094.00
2019-01-05T06:54:38.625Z,101107.00
2019-01-05T06:57:52.775Z,101095.00
2019-01-05T07:01:18.645Z,101133.00
2019-01-05T07:04:18.184Z,101142.00
2019-01-05T07:07:24.568Z,101137.00
2019-01-05T07:10:17.127Z,101153.00
2019-01-05T07:13:18.511Z,101160.00
2019-01-05T07:16:16.098Z,101162.00
2019-01-05T07:19:37.406Z,101174.00
2019-01-05T07:22:40.297Z,101176.00
2019-01-05T07:26:17.903Z,101175.00
2019-01-05T07:29:43.705Z,101182.00
2019-01-05T07:32:46.020Z,101184.00
2019-01-05T07:36:18.671Z,101187.00
2019-01-05T07:39:19.752Z,101196.00
2019-01-05T07:42:45.945Z,101221.00
2019-01-05T07:46:12.921Z,101217.00
2019-01-05T07:49:41.474Z,101227.00
2019-01-05T07:53:20.057Z,101226.00
2019-01-05T07:56:25.580Z,101234.00
2019-01-05T07:59:34.893Z,101245.00
2019-01-05T08:02:33.534Z,101235.00
2019-01-05T08:05:41.829Z,101240.00
2019-01-05T08:09:00.788Z,101241.00
2019-01-05T08:11:57.964Z,101258.00
2019-01-05T08:15:14.267Z,101248.00
2019-01-05T08:18:31.261Z,101249.00
2019-01-05T08:21:42.192Z,101251.00
2019-01-05T08:24:56.785Z,101249.00
2019-01-05T08:28:10.882Z,101257.00
2019-01-05T08:31:31.585Z,101255.00
2019-01-05T08:34:35.258Z,101252.00
2019-01-05T08:37:56.101Z,101258.00
2019-01-05T08:41:09.120Z,101255.00
2019-01-05T08:44:25.933Z,101265.00
2019-01-05T08:47:20.310Z,101260.00
2019-01-05T08:50:37.997Z,101268.00
2019-01-05T08:53:54.463Z,101271.00
2019-01-05T08:57:06.752Z,101271.00
2019-01-05T09:00:30.351Z,101286.00
2019-01-05T09:03:47.966Z,101289.00
2019-01-05T09:06:44.765Z,101286.00
2019-01-05T09:10:10.899Z,101293.00
2019-01-05T09:13:33.670Z,101294.00
2019-01-05T09:16:38.061Z,101306.00
2019-01-05T09:19:53.325Z,101294.00
2019-01-05T09:22:40.808Z,101299.00
2019-01-05T09:25:50.922Z,101300.00
2019-01-05T09:29:02.430Z,101299.00
2019-01-05T09:32:10.911Z,101304.00
2019-01-05T09:35:12.281Z,101304.00
2019-01-05T09:38:25.108Z,101305.00
2019-01-05T09:41:46.028Z,101304.00
2019-01-05T09:45:11.068Z,101308.00
2019-01-05T09:48:40.572Z,101309.00
2019-01-05T09:51:27.656Z,101302.00
2019-01-05T09:55:00.640Z,101312.00
2019-01-05T09:58:11.144Z,101312.00
2019-01-05T10:01:46.706Z,101316.00
2019-01-05T10:04:55.292Z,101315.00
2019-01-05T10:07:46.896Z,101325.00
2019-01-05T10:10:52.307Z,101333.00
2019-01-05T10:14:09.124Z,101331.00
2019-01-05T10:17:42.486Z,101330.00
2019-01-05T10:20:31.881Z,101331.00
2019-01-05T10:23:25.246Z,101328.00
2019-01-05T10:26:43.183Z,101319.00
2019-01-05T10:29:42.964Z,101315.00
2019-01-05T10:35:57.969Z,101313.00
2019-01-05T10:39:04.952Z,101311.00
2019-01-05T10:42:17.666Z,101311.00
2019-01-05T10:45:23.610Z,101308.00
2019-01-05T10:48:40.032Z,101317.00
2019-01-05T10:51:52.490Z,101320.00
2019-01-05T10:54:51.842Z,101322.00
2019-01-05T10:57:38.934Z,101324.00
2019-01-05T11:00:45.442Z,101324.00
2019-01-05T11:03:43.329Z,101331.00
2019-01-05T11:06:54.632Z,101336.00
2019-01-05T11:10:26.126Z,101341.00
2019-01-05T11:13:19.855Z,101338.00
2019-01-05T11:16:16.447Z,101344.00
2019-01-05T11:19:04.184Z,101341.00
2019-01-05T11:22:35.395Z,101338.00
2019-01-05T11:25:44.028Z,101341.00
2019-01-05T11:29:12.843Z,101349.00
2019-01-05T11:32:25.893Z,101357.00
2019-01-05T11:35:48.648Z,101361.00
2019-01-05T11:38:42.018Z,101360.00
2019-01-05T11:41:53.602Z,101361.00
2019-01-05T11:45:13.987Z,101357.00
2019-01-05T11:48:10.120Z,101369.00
2019-01-05T11:51:30.434Z,101362.00
2019-01-05T11:54:20.620Z,101356.00
2019-01-05T11:57:26.663Z,101359.00
2019-01-05T12:00:59.436Z,101356.00
2019-01-05T12:04:14.104Z,101373.00
2019-01-05T12:07:14.968Z,101362.00
2019-01-05T12:10:06.734Z,101360.00
2019-01-05T12:13:20.611Z,101377.00
2019-01-05T12:16:30.981Z,101380.00
2019-01-05T12:20:01.029Z,101381.00
2019-01-05T12:23:09.338Z,101385.00
2019-01-05T12:26:37.132Z,101390.00
2019-01-05T12:29:41.176Z,101397.00
2019-01-05T12:33:14.096Z,101399.00
2019-01-05T12:36:21.671Z,101407.00
2019-01-05T12:39:25.521Z,101405.00
2019-01-05T12:42:22.327Z,101413.00
2019-01-05T12:45:20.362Z,101409.00
2019-01-05T12:48:15.670Z,101410.00
2019-01-05T12:51:15.265Z,101412.00
2019-01-05T12:54:19.181Z,101413.00
2019-01-05T12:57:26.399Z,101409.00
2019-01-05T13:00:39.424Z,101408.00
2019-01-05T13:03:43.816Z,101410.00
2019-01-05T13:06:53.431Z,101413.00
2019-01-05T13:10:38.621Z,101415.00
2019-01-05T13:13:57.854Z,101417.00
2019-01-05T13:17:25.103Z,101428.00
2019-01-05T13:20:49.030Z,101419.00
2019-01-05T13:23:50.215Z,101421.00
2019-01-05T13:26:47.865Z,101432.00
2019-01-05T13:29:48.610Z,101433.00
2019-01-05T13:32:52.629Z,101438.00
2019-01-05T13:35:57.079Z,101435.00
2019-01-05T13:38:46.481Z,101444.00
2019-01-05T13:41:57.629Z,101446.00
2019-01-05T13:45:03.541Z,101443.00
2019-01-05T13:48:28.888Z,101442.00
2019-01-05T13:51:24.611Z,101459.00
2019-01-05T13:53:55.553Z,101461.00
2019-01-05T13:56:29.677Z,101462.00
2019-01-05T13:59:03.445Z,101467.00
2019-01-05T14:01:43.373Z,101471.00
2019-01-05T14:04:36.228Z,101464.00
2019-01-05T14:07:09.975Z,101484.00
2019-01-05T14:09:57.132Z,101482.00
2019-01-05T14:12:27.901Z,101490.00
2019-01-05T14:15:07.432Z,101494.00
2019-01-05T14:17:40.877Z,101482.00
2019-01-05T14:20:28.178Z,101494.00
2019-01-05T14:23:11.686Z,101491.00
2019-01-05T14:26:00.284Z,101490.00
2019-01-05T14:28:33.771Z,101490.00
2019-01-05T14:31:10.267Z,101486.00
2019-01-05T14:33:41.004Z,101485.00
2019-01-05T14:36:15.048Z,101488.00
2019-01-05T14:38:45.879Z,101480.00
2019-01-05T14:41:16.890Z,101480.00
2019-01-05T14:43:47.615Z,101486.00
2019-01-05T14:46:24.548Z,101489.00
2019-01-05T14:48:58.230Z,101500.00
2019-01-05T14:51:29.000Z,101498.00
2019-01-05T14:54:14.926Z,101506.00
2019-01-05T14:57:02.105Z,101516.00
2019-01-05T14:59:35.518Z,101507.00
2019-01-05T15:02:12.267Z,101530.00
2019-01-05T15:04:59.172Z,101529.00
2019-01-05T15:07:45.210Z,101539.00
2019-01-05T15:10:32.366Z,101540.00
2019-01-05T15:13:11.999Z,101539.00
2019-01-05T15:15:54.696Z,101544.00
2019-01-05T15:18:34.329Z,101542.00
2019-01-05T15:21:05.111Z,101550.00
2019-01-05T15:23:52.145Z,101547.00
2019-01-05T15:26:39.199Z,101545.00
2019-01-05T15:29:10.034Z,101549.00
2019-01-05T15:31:57.374Z,101551.00
2019-01-05T15:34:30.870Z,101554.00
2019-01-05T15:37:17.588Z,101548.00
2019-01-05T15:39:48.351Z,101551.00
2019-01-05T15:42:19.117Z,101556.00
2019-01-05T15:45:08.194Z,101552.00
2019-01-05T15:47:41.686Z,101559.00
2019-01-05T15:50:24.533Z,101558.00
2019-01-05T15:53:07.267Z,101565.00
2019-01-05T15:56:02.353Z,101562.00
2019-01-05T15:59:04.783Z,101568.00
2019-01-05T16:01:38.619Z,101577.00
2019-01-05T16:04:27.398Z,101566.00
2019-01-05T16:07:04.017Z,101570.00
2019-01-05T16:09:34.839Z,101580.00
2019-01-05T16:12:14.376Z,101578.00
2019-01-05T16:14:45.215Z,101584.00
2019-01-05T16:17:25.029Z,101586.00
2019-01-05T16:19:58.558Z,101589.00
2019-01-05T16:22:44.743Z,101581.00
2019-01-05T16:25:15.491Z,101583.00
2019-01-05T16:27:46.223Z,101582.00
2019-01-05T16:30:17.083Z,101594.00
2019-01-05T16:32:54.706Z,101591.00
2019-01-05T16:35:25.754Z,101597.00
2019-01-05T16:38:12.716Z,101596.00
2019-01-05T16:40:59.847Z,101586.00
2019-01-05T16:43:30.616Z,101595.00
2019-01-05T16:46:07.103Z,101593.00
2019-01-05T16:48:54.272Z,101593.00
2019-01-05T16:51:41.112Z,101598.00
2019-01-05T16:54:14.789Z,101596.00
2019-01-05T16:56:45.511Z,101594.00
2019-01-05T16:59:19.022Z,101589.00
2019-01-05T17:01:49.829Z,101595.00
2019-01-05T17:04:29.684Z,101600.00
2019-01-05T17:07:12.333Z,101594.00
2019-01-05T17:10:05.237Z,101602.00
2019-01-05T17:12:52.374Z,101598.00
2019-01-05T17:15:23.130Z,101594.00
2019-01-05T17:18:03.014Z,101598.00
2019-01-05T17:20:49.005Z,101601.00
2019-01-05T17:23:31.885Z,101599.00
2019-01-05T17:26:19.053Z,101605.00
2019-01-05T17:28:49.816Z,101609.00
2019-01-05T17:31:35.795Z,101612.00
2019-01-05T17:34:06.564Z,101618.00
2019-01-05T17:36:53.637Z,101620.00
2019-01-05T17:39:36.718Z,101618.00
2019-01-05T17:42:24.036Z,101620.00
2019-01-05T17:45:07.076Z,101618.00
2019-01-05T17:47:56.223Z,101620.00
2019-01-05T17:50:43.613Z,101622.00
2019-01-05T17:53:32.437Z,101624.00
2019-01-05T17:56:19.640Z,101629.00
2019-01-05T17:58:50.408Z,101626.00
2019-01-05T18:01:39.519Z,101628.00
2019-01-05T18:04:25.815Z,101634.00
2019-01-05T18:07:05.399Z,101636.00
2019-01-05T18:09:41.981Z,101645.00
2019-01-05T18:12:29.256Z,101644.00
2019-01-05T18:15:18.648Z,101651.00
2019-01-05T18:18:05.981Z,101645.00
2019-01-05T18:20:39.978Z,101647.00
2019-01-05T18:23:33.116Z,101660.00
2019-01-05T18:26:20.290Z,101657.00
2019-01-05T18:28:56.609Z,101662.00
2019-01-05T18:31:27.537Z,101655.00
2019-01-05T18:34:04.533Z,101663.00
2019-01-05T18:36:36.076Z,101669.00
2019-01-05T18:39:08.938Z,101660.00
2019-01-05T18:41:39.862Z,101672.00
2019-01-05T18:44:20.047Z,101682.00
2019-01-05T18:46:50.984Z,101685.00
2019-01-05T18:49:35.224Z,101683.00
2019-01-05T18:52:25.021Z,101689.00
2019-01-05T18:55:07.733Z,101702.00
2019-01-05T18:57:41.775Z,101711.00
2019-01-05T19:00:13.079Z,101708.00
2019-01-05T19:02:46.683Z,101703.00
2019-01-05T19:05:34.339Z,101715.00
2019-01-05T19:08:20.517Z,101714.00
2019-01-05T19:10:57.365Z,101711.00
2019-01-05T19:13:28.356Z,101714.00
2019-01-05T19:16:11.285Z,101716.00
2019-01-05T19:18:42.020Z,101716.00
2019-01-05T19:21:15.417Z,101715.00
2019-01-05T19:24:17.620Z,101725.00
2019-01-05T19:26:48.622Z,101728.00
2019-01-05T19:29:31.363Z,101725.00
2019-01-05T19:32:02.349Z,101734.00
2019-01-05T19:34:49.201Z,101729.00
2019-01-05T19:37:25.712Z,101738.00
2019-01-05T19:40:11.800Z,101739.00
2019-01-05T19:42:51.968Z,101749.00
2019-01-05T19:45:36.064Z,101751.00
2019-01-05T19:48:26.490Z,101744.00
2019-01-05T19:50:57.664Z,101749.00
2019-01-05T19:53:37.183Z,101759.00
2019-01-05T19:56:10.741Z,101756.00
2019-01-05T19:58:56.684Z,101758.00
2019-01-05T20:01:30.916Z,101760.00
2019-01-05T20:04:01.715Z,101765.00
2019-01-05T20:06:32.873Z,101769.00
2019-01-05T20:09:04.031Z,101769.00
2019-01-05T20:11:51.127Z,101765.00
2019-01-05T20:14:38.451Z,101773.00
2019-01-05T20:17:18.337Z,101775.00
2019-01-05T20:20:04.324Z,101779.00
2019-01-05T20:22:35.241Z,101781.00
2019-01-05T20:25:09.648Z,101783.00
2019-01-05T20:28:18.914Z,101792.00
2019-01-05T20:31:05.820Z,101789.00
2019-01-05T20:33:45.684Z,101763.00
2019-01-05T20:36:16.442Z,101779.00
2019-01-05T20:38:50.118Z,101785.00
2019-01-05T20:41:35.834Z,101784.00
2019-01-05T20:44:06.577Z,101790.00
2019-01-05T20:46:46.180Z,101786.00
2019-01-05T20:49:32.004Z,101789.00
2019-01-05T20:52:19.050Z,101794.00
2019-01-05T20:54:53.114Z,101790.00
2019-01-05T20:57:33.513Z,101807.00
2019-01-05T21:00:11.227Z,101804.00
2019-01-05T21:02:44.757Z,101807.00
2019-01-05T21:05:28.266Z,101817.00
2019-01-05T21:08:15.645Z,101807.00
2019-01-05T21:10:46.383Z,101821.00
2019-01-05T21:13:33.342Z,101812.00
2019-01-05T21:16:06.767Z,101811.00
2019-01-05T21:18:46.406Z,101813.00
2019-01-05T21:21:19.868Z,101812.00
2019-01-05T21:24:06.995Z,101818.00
2019-01-05T21:26:43.549Z,101819.00
2019-01-05T21:29:30.874Z,101817.00
2019-01-05T21:32:10.796Z,101818.00
2019-01-05T21:34:57.829Z,101821.00
2019-01-05T21:37:48.043Z,101823.00
2019-01-05T21:40:35.251Z,101823.00
2019-01-05T21:43:22.138Z,101834.00
2019-01-05T21:46:11.147Z,101828.00
2019-01-05T21:48:44.616Z,101829.00
2019-01-05T21:51:33.392Z,101840.00
2019-01-05T21:54:20.535Z,101846.00
2019-01-05T21:56:56.908Z,101842.00
2019-01-05T21:59:33.711Z,101851.00
2019-01-05T22:02:20.116Z,101855.00
2019-01-05T22:04:50.854Z,101848.00
2019-01-05T22:07:27.300Z,101850.00
2019-01-05T22:09:58.044Z,101853.00
2019-01-05T22:12:44.096Z,101848.00
2019-01-05T22:15:30.457Z,101856.00
2019-01-05T22:18:07.449Z,101844.00
2019-01-05T22:20:41.464Z,101849.00
2019-01-05T22:23:15.572Z,101851.00
2019-01-05T22:26:02.994Z,101858.00
2019-01-05T22:28:43.217Z,101857.00
2019-01-05T22:31:20.124Z,101853.00
2019-01-05T22:33:51.118Z,101854.00
2019-01-05T22:36:21.953Z,101850.00
2019-01-05T22:39:07.804Z,101852.00
2019-01-05T22:41:50.817Z,101854.00
2019-01-05T22:44:31.377Z,101855.00
2019-01-05T22:47:10.900Z,101865.00
2019-01-05T22:49:46.068Z,101854.00
2019-01-05T22:52:23.019Z,101863.00
2019-01-05T22:54:56.327Z,101862.00
2019-01-05T22:57:33.718Z,101862.00
2019-01-05T23:00:23.167Z,101847.00
2019-01-05T23:02:54.226Z,101872.00
2019-01-05T23:05:37.021Z,101860.00
2019-01-05T23:08:13.963Z,101871.00
2019-01-05T23:10:44.718Z,101876.00
2019-01-05T23:13:15.450Z,101876.00
2019-01-05T23:15:55.269Z,101880.00
2019-01-05T23:18:28.957Z,101882.00
2019-01-05T23:21:14.797Z,101879.00
2019-01-05T23:23:45.618Z,101876.00
2019-01-05T23:26:32.532Z,101889.00
2019-01-05T23:29:14.860Z,101878.00
2019-01-05T23:31:57.897Z,101883.00
2019-01-05T23:34:34.503Z,101895.00
2019-01-05T23:37:05.246Z,101885.00
2019-01-05T23:39:45.254Z,101886.00
2019-01-05T23:42:31.115Z,101890.00
2019-01-05T23:45:01.890Z,101894.00
2019-01-05T23:47:38.663Z,101890.00
2019-01-05T23:50:09.879Z,101885.00
2019-01-05T23:52:57.193Z,101881.00
2019-01-05T23:55:42.911Z,101894.00
2019-01-05T23:58:25.005Z,101882.00
